首页
METAR-TAF:

METAR-TAF

机场 :

布利斯堡, 得克萨斯州, 美国

纬度: 31-50-58N, 经度: 106-22-48W, 海拔: 1203米

当前天气观测

该预报发布于25分钟前的10:55 UTC
风速7节,风向北转西北
温度 27°C
湿度 37%
气压 1014 hPa
能見度: 16.1公里
天空无云

METAR: KBIF 251055Z AUTO 33007KT 10SM CLR 27/11 A2995 RMK AO2 SLP061 T02690114 $

时间: 05:20 (11:20 UTC)

预报

该预报发布于20分钟前的11:00 UTC
预报有效从25日的 11点(UTC)到 26日的 17点(UTC)
风速6节,风向多变
能见度10公里或以上
少量云层高于15000英尺
成为
从 25日的 22点(UTC)到 25日的 23点(UTC)
风速10节,风向北转西北,有时为20节阵风
能见度10公里或以上
散云层高于10000英尺
附近有雷暴
成为
从 26日的 04点(UTC)到 26日的 05点(UTC)
风速9节,风向北转西北
能见度10公里或以上
少量云层高于10000英尺

TAF: KBIF 251100Z 2511/2617 VRB06KT 9999 FEW150 QNH2992INS BECMG 2522/2523 33010G20KT 9999 VCTS SCT100 QNH2987INS BECMG 2604/2605 33009KT 9999 NSW FEW100 QNH2990INS TX40/2523Z TN24/2512Z

超过4000个机场的气象观测和天气预报(METAR&TAF报告)。

可查询的气象台以黄色和红色小点在地图上表示。

将鼠标移到小点上方,可查看气象台名称。

然后点击查看天气观测和预报。

如需切换地图:点击带黑十字的绿色按钮放大地图;点击带横线的绿色按钮缩小地图;或者点击绿色箭头查看邻近地区的地图。


METAR-TAF: